Time;durP1;ratioP1;P1;durP2;ratioP2;P2;SDS_P1;SDS_P2;PMS_P1;PMS_P2;Temp;Humidity;BMP_temperature;BMP_pressure;BME280_temperature;BME280_humidity;BME280_pressure;Samples;Min_cycle;Max_cycle;Signal;HPM_P1;HPM_P2
2021/03/22 00:01:58;;;;;;;32.30;3.80;;;;;;;;;;5072277;28;20024;-79
2021/03/22 00:04:23;;;;;;;26.20;4.13;;;;;;;;;;5071812;28;20051;-79
2021/03/22 00:06:48;;;;;;;37.17;4.93;;;;;;;;;;5073050;28;20017;-79
2021/03/22 00:09:13;;;;;;;25.83;4.47;;;;;;;;;;5071945;28;20017;-79
2021/03/22 00:11:39;;;;;;;24.13;3.93;;;;;;;;;;5071607;28;20024;-79
2021/03/22 00:14:04;;;;;;;31.70;3.90;;;;;;;;;;5073271;28;20391;-79
2021/03/22 00:16:29;;;;;;;27.80;4.10;;;;;;;;;;5071810;28;20013;-79
2021/03/22 00:18:54;;;;;;;22.20;3.37;;;;;;;;;;5071499;28;20107;-79
2021/03/22 00:21:20;;;;;;;21.83;3.97;;;;;;;;;;5071329;28;20028;-79
2021/03/22 00:23:46;;;;;;;25.00;4.00;;;;;;;;;;5071423;28;20020;-78
2021/03/22 00:26:11;;;;;;;20.43;3.67;;;;;;;;;;5071653;28;20024;-79
2021/03/22 00:28:38;;;;;;;22.27;3.33;;;;;;;;;;5069505;28;20371;-79
2021/03/22 00:31:05;;;;;;;28.13;4.03;;;;;;;;;;5068409;28;20422;-79
2021/03/22 00:33:30;;;;;;;27.80;4.23;;;;;;;;;;5073102;28;20035;-79
2021/03/22 00:35:55;;;;;;;37.27;4.37;;;;;;;;;;5071297;28;20016;-79
2021/03/22 00:38:21;;;;;;;16.57;3.30;;;;;;;;;;5070803;28;20047;-80
2021/03/22 00:40:46;;;;;;;22.07;4.40;;;;;;;;;;5071239;28;20020;-79
2021/03/22 00:43:12;;;;;;;25.27;3.87;;;;;;;;;;5071082;28;20033;-79
2021/03/22 00:45:37;;;;;;;21.97;4.20;;;;;;;;;;5071103;28;20024;-79
2021/03/22 00:48:03;;;;;;;21.53;3.97;;;;;;;;;;5071335;28;20073;-79
2021/03/22 00:50:30;;;;;;;30.10;4.33;;;;;;;;;;5070873;28;20096;-79
2021/03/22 00:52:55;;;;;;;23.87;4.20;;;;;;;;;;5071030;28;20452;-79
2021/03/22 00:55:21;;;;;;;23.67;5.30;;;;;;;;;;5071080;28;20150;-79
2021/03/22 00:57:46;;;;;;;21.83;4.47;;;;;;;;;;5071066;28;20107;-79
2021/03/22 01:00:17;;;;;;;24.27;3.97;;;;;;;;;;5071057;28;20025;-79
2021/03/22 01:02:42;;;;;;;28.93;4.57;;;;;;;;;;5070773;28;20040;-80
2021/03/22 01:05:07;;;;;;;26.60;4.03;;;;;;;;;;5072463;28;20436;-79
2021/03/22 01:07:33;;;;;;;22.13;4.20;;;;;;;;;;5070948;28;20074;-79
2021/03/22 01:09:58;;;;;;;24.77;4.10;;;;;;;;;;5072129;28;20456;-79
2021/03/22 01:12:23;;;;;;;17.30;3.50;;;;;;;;;;5071909;28;20075;-79
2021/03/22 01:14:48;;;;;;;19.90;3.57;;;;;;;;;;5072060;28;20403;-79
2021/03/22 01:17:13;;;;;;;21.83;4.00;;;;;;;;;;5072589;28;20107;-80
2021/03/22 01:19:38;;;;;;;26.13;4.00;;;;;;;;;;5070670;28;20074;-79
2021/03/22 01:22:04;;;;;;;17.77;3.83;;;;;;;;;;5071777;28;20024;-79
2021/03/22 01:24:31;;;;;;;22.87;4.00;;;;;;;;;;5072200;28;20115;-79
2021/03/22 01:26:59;;;;;;;31.30;4.33;;;;;;;;;;5071777;28;20013;-79
2021/03/22 01:29:29;;;;;;;23.23;4.30;;;;;;;;;;5070921;28;20503;-79
2021/03/22 01:31:57;;;;;;;22.07;6.47;;;;;;;;;;5071391;28;20017;-79
2021/03/22 01:34:22;;;;;;;31.83;5.23;;;;;;;;;;5072271;28;20442;-79
2021/03/22 01:36:47;;;;;;;32.40;5.13;;;;;;;;;;5070673;28;20044;-79
2021/03/22 01:39:15;;;;;;;21.77;4.40;;;;;;;;;;5070500;28;20029;-79
2021/03/22 01:41:59;;;;;;;29.03;5.03;;;;;;;;;;5070638;28;20067;-79
2021/03/22 01:44:29;;;;;;;28.03;4.70;;;;;;;;;;5070443;28;20222;-79
2021/03/22 01:46:59;;;;;;;19.30;4.53;;;;;;;;;;5070504;28;20031;-79
2021/03/22 01:49:26;;;;;;;24.93;4.50;;;;;;;;;;5073227;28;20024;-79
2021/03/22 01:51:53;;;;;;;27.43;4.23;;;;;;;;;;5074418;28;20024;-79
2021/03/22 01:54:18;;;;;;;20.70;3.43;;;;;;;;;;5074351;28;20031;-79
2021/03/22 01:56:48;;;;;;;32.77;4.57;;;;;;;;;;5074650;28;20021;-79
2021/03/22 01:59:15;;;;;;;27.67;3.70;;;;;;;;;;5074428;28;20476;-79
2021/03/22 02:01:42;;;;;;;25.27;4.47;;;;;;;;;;5075691;28;20021;-79
2021/03/22 02:04:08;;;;;;;20.60;4.17;;;;;;;;;;5074441;28;20028;-79
2021/03/22 02:06:33;;;;;;;21.07;4.03;;;;;;;;;;5073871;28;20021;-79
2021/03/22 02:08:59;;;;;;;21.90;4.30;;;;;;;;;;5075787;28;20145;-79
2021/03/22 02:11:27;;;;;;;17.60;4.27;;;;;;;;;;5075250;28;20035;-79
2021/03/22 02:13:57;;;;;;;21.23;4.10;;;;;;;;;;5075534;28;20455;-79
2021/03/22 02:16:28;;;;;;;23.10;3.70;;;;;;;;;;5073864;28;20490;-79
2021/03/22 02:18:59;;;;;;;22.87;4.90;;;;;;;;;;5074127;28;20126;-78
2021/03/22 02:21:34;;;;;;;21.37;3.60;;;;;;;;;;5075407;28;20119;-79
2021/03/22 02:24:02;;;;;;;15.80;4.13;;;;;;;;;;5073637;28;20460;-79
2021/03/22 02:26:39;;;;;;;19.10;4.03;;;;;;;;;;5074079;28;20329;-79
2021/03/22 02:29:23;;;;;;;17.53;3.87;;;;;;;;;;5073267;28;20447;-79
2021/03/22 02:32:07;;;;;;;24.33;4.43;;;;;;;;;;5073975;28;20021;-79
2021/03/22 02:34:38;;;;;;;14.33;3.90;;;;;;;;;;5075026;28;20047;-79
2021/03/22 02:37:14;;;;;;;25.07;4.50;;;;;;;;;;5073404;28;20031;-79
2021/03/22 02:39:49;;;;;;;24.77;3.97;;;;;;;;;;5073725;28;20020;-79
2021/03/22 02:42:15;;;;;;;21.27;4.37;;;;;;;;;;5074690;28;20106;-79
2021/03/22 02:44:40;;;;;;;32.13;4.43;;;;;;;;;;5073651;28;20475;-79
2021/03/22 02:47:09;;;;;;;24.40;4.00;;;;;;;;;;5073600;28;20032;-79
2021/03/22 02:49:37;;;;;;;26.63;4.60;;;;;;;;;;5071793;28;20020;-79
2021/03/22 02:52:02;;;;;;;30.53;3.93;;;;;;;;;;5070800;28;20052;-79
2021/03/22 02:54:52;;;;;;;21.00;3.77;;;;;;;;;;5069549;28;20055;-79
2021/03/22 02:57:33;;;;;;;24.70;3.63;;;;;;;;;;5068157;28;20029;-79
2021/03/22 03:00:04;;;;;;;24.63;4.10;;;;;;;;;;5072372;28;20380;-79
2021/03/22 03:02:32;;;;;;;32.60;4.47;;;;;;;;;;5074024;28;20132;-79
2021/03/22 03:05:07;;;;;;;22.10;3.83;;;;;;;;;;5073140;28;20531;-80
2021/03/22 03:07:32;;;;;;;24.30;4.40;;;;;;;;;;5072925;28;20124;-79
2021/03/22 03:09:57;;;;;;;20.40;4.20;;;;;;;;;;5073737;28;20048;-80
2021/03/22 03:12:23;;;;;;;25.87;5.50;;;;;;;;;;5072788;28;20107;-79
2021/03/22 03:14:50;;;;;;;20.17;3.70;;;;;;;;;;5073106;28;20028;-80
2021/03/22 03:17:15;;;;;;;17.93;3.53;;;;;;;;;;5072636;28;20429;-80
2021/03/22 03:19:41;;;;;;;31.93;5.43;;;;;;;;;;5073080;28;20028;-80
2021/03/22 03:22:07;;;;;;;25.03;4.80;;;;;;;;;;5074184;28;20117;-80
2021/03/22 03:24:33;;;;;;;29.33;5.23;;;;;;;;;;5072834;28;20027;-80
2021/03/22 03:26:58;;;;;;;24.10;4.87;;;;;;;;;;5072855;28;20023;-80
2021/03/22 03:29:23;;;;;;;22.00;4.93;;;;;;;;;;5072533;28;20013;-80
2021/03/22 03:31:48;;;;;;;28.00;4.50;;;;;;;;;;5074104;28;20372;-80
2021/03/22 03:34:13;;;;;;;28.30;4.90;;;;;;;;;;5072364;28;20067;-80
2021/03/22 03:36:39;;;;;;;26.80;5.00;;;;;;;;;;5072748;28;20023;-80
2021/03/22 03:39:05;;;;;;;22.93;4.80;;;;;;;;;;5073400;28;20056;-80
2021/03/22 03:41:30;;;;;;;26.23;4.50;;;;;;;;;;5073676;28;20031;-80
2021/03/22 03:43:55;;;;;;;24.40;4.43;;;;;;;;;;5070333;28;20013;-80
2021/03/22 03:46:20;;;;;;;28.13;5.47;;;;;;;;;;5072114;28;20456;-80
2021/03/22 03:48:46;;;;;;;31.67;5.60;;;;;;;;;;5072497;28;20024;-80
2021/03/22 03:51:11;;;;;;;27.50;5.90;;;;;;;;;;5072099;28;20115;-80
2021/03/22 03:53:36;;;;;;;32.87;5.40;;;;;;;;;;5072363;28;20446;-79
2021/03/22 03:56:03;;;;;;;30.97;5.70;;;;;;;;;;5073550;28;20022;-80
2021/03/22 03:58:28;;;;;;;23.37;5.57;;;;;;;;;;5091976;28;20059;-80
2021/03/22 04:00:54;;;;;;;32.63;5.60;;;;;;;;;;5073636;28;20044;-80
2021/03/22 04:03:35;;;;;;;23.37;5.00;;;;;;;;;;5071985;28;20024;-80
2021/03/22 04:06:03;;;;;;;27.17;5.20;;;;;;;;;;5082619;28;20482;-80
2021/03/22 04:08:29;;;;;;;28.47;5.90;;;;;;;;;;5073088;28;20101;-80
2021/03/22 04:10:55;;;;;;;23.40;4.73;;;;;;;;;;5071988;28;20064;-80
2021/03/22 04:13:21;;;;;;;29.27;6.60;;;;;;;;;;5071716;28;20029;-79
2021/03/22 04:15:46;;;;;;;20.07;5.27;;;;;;;;;;5071792;28;20468;-80
2021/03/22 04:18:12;;;;;;;26.07;6.57;;;;;;;;;;5071979;28;20025;-80
2021/03/22 04:20:37;;;;;;;30.77;5.33;;;;;;;;;;5071727;28;20017;-80
2021/03/22 04:23:02;;;;;;;30.27;5.43;;;;;;;;;;5071467;28;20486;-80
2021/03/22 04:25:28;;;;;;;31.30;6.17;;;;;;;;;;5071553;28;20099;-80
2021/03/22 04:27:53;;;;;;;24.07;6.20;;;;;;;;;;5072829;28;20031;-80
2021/03/22 04:30:18;;;;;;;27.73;6.53;;;;;;;;;;5071530;28;20013;-80
2021/03/22 04:32:44;;;;;;;28.97;6.20;;;;;;;;;;5071735;28;20096;-80
2021/03/22 04:35:09;;;;;;;25.97;6.27;;;;;;;;;;5071425;28;20100;-80
2021/03/22 04:37:34;;;;;;;23.73;6.30;;;;;;;;;;5071471;28;20020;-80
2021/03/22 04:40:00;;;;;;;29.40;6.53;;;;;;;;;;5071332;28;20099;-80
2021/03/22 04:42:25;;;;;;;22.97;6.27;;;;;;;;;;5071457;28;20472;-80
2021/03/22 04:44:50;;;;;;;26.33;6.30;;;;;;;;;;5072653;28;20027;-80
2021/03/22 04:47:15;;;;;;;29.17;5.93;;;;;;;;;;5072392;28;20030;-80
2021/03/22 04:49:41;;;;;;;23.60;5.90;;;;;;;;;;5071411;28;20032;-80
2021/03/22 04:52:06;;;;;;;29.37;5.97;;;;;;;;;;5072661;28;20051;-80
2021/03/22 04:54:31;;;;;;;28.67;6.30;;;;;;;;;;5072287;28;20493;-80
2021/03/22 04:57:08;;;;;;;33.33;6.67;;;;;;;;;;5072617;28;20020;-80
2021/03/22 04:59:34;;;;;;;25.73;6.13;;;;;;;;;;5070897;28;20348;-80
2021/03/22 05:01:59;;;;;;;23.37;6.40;;;;;;;;;;5072650;28;20017;-80
2021/03/22 05:04:24;;;;;;;20.67;5.50;;;;;;;;;;5070937;28;20054;-80
2021/03/22 05:06:49;;;;;;;21.93;5.63;;;;;;;;;;5071070;28;20486;-80
2021/03/22 05:09:14;;;;;;;30.73;6.30;;;;;;;;;;5072737;28;20105;-80
2021/03/22 05:11:39;;;;;;;20.50;5.77;;;;;;;;;;5071897;28;20025;-80
2021/03/22 05:14:05;;;;;;;23.93;5.50;;;;;;;;;;5071133;28;20020;-80
2021/03/22 05:16:30;;;;;;;23.87;5.10;;;;;;;;;;5072412;28;20090;-80
2021/03/22 05:18:55;;;;;;;30.10;6.43;;;;;;;;;;5070752;28;20118;-80
2021/03/22 05:21:20;;;;;;;26.77;6.43;;;;;;;;;;5072299;28;20028;-80
2021/03/22 05:23:45;;;;;;;32.10;6.37;;;;;;;;;;5070135;28;20020;-80
2021/03/22 05:26:11;;;;;;;26.70;6.60;;;;;;;;;;5072366;28;20070;-80
2021/03/22 05:28:40;;;;;;;22.27;6.27;;;;;;;;;;5072031;28;20452;-80
2021/03/22 05:31:05;;;;;;;33.57;6.60;;;;;;;;;;5071933;28;20059;-80
2021/03/22 05:33:30;;;;;;;25.63;6.70;;;;;;;;;;5072239;28;20461;-80
2021/03/22 05:35:57;;;;;;;31.90;6.77;;;;;;;;;;5071738;28;20021;-80
2021/03/22 05:38:23;;;;;;;27.50;6.70;;;;;;;;;;5072226;28;20036;-80
2021/03/22 05:40:49;;;;;;;29.67;6.47;;;;;;;;;;5070665;28;20166;-80
2021/03/22 05:43:18;;;;;;;29.87;6.23;;;;;;;;;;5070571;28;20040;-79
2021/03/22 05:45:43;;;;;;;28.80;7.40;;;;;;;;;;5070582;28;20392;-80
2021/03/22 05:48:17;;;;;;;33.80;7.72;;;;;;;;;;5070605;28;20028;-80
2021/03/22 05:51:02;;;;;;;41.87;7.97;;;;;;;;;;5070448;28;20421;-80
2021/03/22 05:53:27;;;;;;;23.90;7.27;;;;;;;;;;5071932;28;20024;-80
2021/03/22 05:55:54;;;;;;;29.37;7.60;;;;;;;;;;5071897;28;20012;-80
2021/03/22 05:58:25;;;;;;;30.27;6.53;;;;;;;;;;5070440;28;20021;-80
2021/03/22 06:00:53;;;;;;;24.10;6.57;;;;;;;;;;5070658;28;20115;-80
2021/03/22 06:03:33;;;;;;;39.40;6.93;;;;;;;;;;5070429;28;20031;-79
2021/03/22 06:06:05;;;;;;;27.00;6.67;;;;;;;;;;5070738;28;20021;-80
2021/03/22 06:08:30;;;;;;;28.92;6.85;;;;;;;;;;5068108;28;20017;-80
2021/03/22 06:10:56;;;;;;;30.50;6.93;;;;;;;;;;5071863;28;20074;-80
2021/03/22 06:13:33;;;;;;;34.80;7.77;;;;;;;;;;5071636;28;20479;-80
2021/03/22 06:16:02;;;;;;;23.30;6.80;;;;;;;;;;5070572;28;20099;-80
2021/03/22 06:18:34;;;;;;;23.57;6.10;;;;;;;;;;5070237;28;20028;-80
2021/03/22 06:21:02;;;;;;;21.43;6.23;;;;;;;;;;5071526;28;20468;-80
2021/03/22 06:23:33;;;;;;;29.53;6.73;;;;;;;;;;5069971;28;20475;-80
2021/03/22 06:25:59;;;;;;;21.23;7.00;;;;;;;;;;5070926;28;20072;-80
2021/03/22 06:28:26;;;;;;;31.60;7.60;;;;;;;;;;5070414;28;20024;-80
2021/03/22 06:30:54;;;;;;;25.67;7.20;;;;;;;;;;5069734;28;20016;-80
2021/03/22 06:33:25;;;;;;;26.70;6.67;;;;;;;;;;5070451;28;20021;-80
2021/03/22 06:35:50;;;;;;;28.57;6.93;;;;;;;;;;5073201;28;20052;-80
2021/03/22 06:38:15;;;;;;;29.37;8.20;;;;;;;;;;5075028;28;20024;-80
2021/03/22 06:40:40;;;;;;;33.63;8.10;;;;;;;;;;5073673;28;20549;-80
2021/03/22 06:43:11;;;;;;;30.27;7.83;;;;;;;;;;5073476;28;20028;-80
2021/03/22 06:45:38;;;;;;;31.73;8.20;;;;;;;;;;5073482;28;20094;-80
2021/03/22 06:48:22;;;;;;;39.80;9.13;;;;;;;;;;5074939;28;20017;-80
2021/03/22 06:50:49;;;;;;;31.20;8.33;;;;;;;;;;5070784;28;20115;-80
2021/03/22 06:53:32;;;;;;;31.50;7.30;;;;;;;;;;5073492;28;20036;-80
2021/03/22 06:56:15;;;;;;;22.33;7.25;;;;;;;;;;5074651;28;20479;-80
2021/03/22 06:58:41;;;;;;;26.37;7.80;;;;;;;;;;5073183;28;20482;-80
2021/03/22 07:01:26;;;;;;;21.53;7.93;;;;;;;;;;5072934;28;20111;-80
2021/03/22 07:03:52;;;;;;;22.63;8.07;;;;;;;;;;5073433;28;20082;-80
2021/03/22 07:06:21;;;;;;;35.47;9.27;;;;;;;;;;5074743;28;20538;-80
2021/03/22 07:08:47;;;;;;;34.63;8.17;;;;;;;;;;5074409;28;20535;-80
2021/03/22 07:11:17;;;;;;;29.50;8.17;;;;;;;;;;5074686;28;20406;-80
2021/03/22 07:13:53;;;;;;;31.70;8.70;;;;;;;;;;5073391;28;20044;-80
2021/03/22 07:16:23;;;;;;;31.40;7.37;;;;;;;;;;5073141;28;20028;-80
2021/03/22 07:19:03;;;;;;;26.20;7.40;;;;;;;;;;5071860;28;20025;-80
2021/03/22 07:21:28;;;;;;;44.37;8.50;;;;;;;;;;5072343;28;20107;-80
2021/03/22 07:24:07;;;;;;;35.00;8.77;;;;;;;;;;5072402;28;20530;-80
2021/03/22 07:26:42;;;;;;;42.43;9.57;;;;;;;;;;5073198;28;20024;-80
2021/03/22 07:29:08;;;;;;;43.53;9.07;;;;;;;;;;5071709;28;20108;-80
2021/03/22 07:31:51;;;;;;;30.27;9.13;;;;;;;;;;5073960;28;20040;-80
2021/03/22 07:34:17;;;;;;;37.67;8.87;;;;;;;;;;5073781;28;20024;-80
2021/03/22 07:36:42;;;;;;;28.00;8.07;;;;;;;;;;5072637;28;20163;-80
2021/03/22 07:39:14;;;;;;;50.37;10.20;;;;;;;;;;5073735;28;20016;-80
2021/03/22 07:41:49;;;;;;;39.20;9.57;;;;;;;;;;5071244;28;20039;-80
2021/03/22 07:44:29;;;;;;;31.77;8.77;;;;;;;;;;5070279;28;20061;-80
2021/03/22 07:47:13;;;;;;;40.57;8.87;;;;;;;;;;5069293;28;20047;-80
2021/03/22 07:49:41;;;;;;;29.40;8.90;;;;;;;;;;5067125;28;20110;-80
2021/03/22 07:52:25;;;;;;;36.57;8.50;;;;;;;;;;5069705;28;20101;-80
2021/03/22 07:54:56;;;;;;;56.83;10.17;;;;;;;;;;5066924;28;20476;-80
2021/03/22 07:57:21;;;;;;;29.67;9.10;;;;;;;;;;5072016;28;20024;-80
2021/03/22 07:59:55;;;;;;;36.67;9.90;;;;;;;;;;5073316;28;20115;-80
2021/03/22 08:02:22;;;;;;;46.07;9.00;;;;;;;;;;5072205;28;20075;-80
2021/03/22 08:04:55;;;;;;;28.73;7.43;;;;;;;;;;5073152;28;20025;-80
2021/03/22 08:07:43;;;;;;;33.67;8.77;;;;;;;;;;5071593;28;20023;-80
2021/03/22 08:10:15;;;;;;;32.73;9.23;;;;;;;;;;5063424;28;20468;-80
2021/03/22 08:12:43;;;;;;;36.10;9.70;;;;;;;;;;5066978;28;20086;-80
2021/03/22 08:15:14;;;;;;;42.57;9.13;;;;;;;;;;5068846;28;20016;-80
2021/03/22 08:18:08;;;;;;;38.93;8.53;;;;;;;;;;5064307;28;20028;-80
2021/03/22 08:20:35;;;;;;;26.13;8.30;;;;;;;;;;5063790;28;20048;-80
2021/03/22 08:23:06;;;;;;;40.43;10.23;;;;;;;;;;5062625;28;20025;-80
2021/03/22 08:25:34;;;;;;;39.77;8.93;;;;;;;;;;5071407;28;20027;-79
2021/03/22 08:28:23;;;;;;;33.53;8.80;;;;;;;;;;5065476;28;20032;-79
2021/03/22 08:30:52;;;;;;;32.93;8.17;;;;;;;;;;5054102;28;20078;-80
2021/03/22 08:33:18;;;;;;;42.80;9.17;;;;;;;;;;5069004;28;20024;-80
2021/03/22 08:35:48;;;;;;;39.70;9.10;;;;;;;;;;5067867;28;20025;-80
2021/03/22 08:38:15;;;;;;;41.97;8.20;;;;;;;;;;5067562;28;20135;-81
2021/03/22 08:40:43;;;;;;;26.00;9.30;;;;;;;;;;5067881;28;20016;-81
2021/03/22 08:43:18;;;;;;;29.60;8.03;;;;;;;;;;5064458;28;20047;-81
2021/03/22 08:46:02;;;;;;;30.30;9.50;;;;;;;;;;5067973;28;20021;-81
2021/03/22 08:48:28;;;;;;;26.13;7.40;;;;;;;;;;5062932;28;20074;-81
2021/03/22 08:50:56;;;;;;;32.20;7.43;;;;;;;;;;5068089;28;20081;-81
2021/03/22 08:53:25;;;;;;;27.20;9.03;;;;;;;;;;5065045;28;20032;-81
2021/03/22 08:55:57;;;;;;;30.03;8.77;;;;;;;;;;5068277;28;20032;-81
2021/03/22 08:58:36;;;;;;;24.87;7.47;;;;;;;;;;5064749;28;20440;-81
2021/03/22 09:01:08;;;;;;;22.80;8.97;;;;;;;;;;5071132;28;20127;-81
2021/03/22 09:03:39;;;;;;;30.30;8.13;;;;;;;;;;5072108;28;20023;-81
2021/03/22 09:06:15;;;;;;;27.10;8.20;;;;;;;;;;5071170;28;20032;-81
2021/03/22 09:08:42;;;;;;;22.90;7.67;;;;;;;;;;5072131;28;20024;-81
2021/03/22 09:11:30;;;;;;;23.53;6.63;;;;;;;;;;5071132;28;20019;-81
2021/03/22 09:13:55;;;;;;;22.23;6.50;;;;;;;;;;5064418;28;20028;-81
2021/03/22 09:16:23;;;;;;;16.60;6.13;;;;;;;;;;5071202;28;20055;-82
2021/03/22 09:19:07;;;;;;;17.57;5.77;;;;;;;;;;5071989;28;20090;-81
2021/03/22 09:21:33;;;;;;;19.30;5.60;;;;;;;;;;5069526;28;20395;-81
2021/03/22 09:23:58;;;;;;;17.47;5.40;;;;;;;;;;5070166;28;20058;-81
2021/03/22 09:26:42;;;;;;;23.67;5.63;;;;;;;;;;5072284;28;20446;-81
2021/03/22 09:29:26;;;;;;;17.80;6.03;;;;;;;;;;5070786;28;20021;-80
2021/03/22 09:31:51;;;;;;;22.37;6.03;;;;;;;;;;5070319;28;20020;-80
2021/03/22 09:34:16;;;;;;;16.50;5.50;;;;;;;;;;5071636;28;20035;-81
2021/03/22 09:36:45;;;;;;;23.13;5.27;;;;;;;;;;5070569;28;20020;-80
2021/03/22 09:39:14;;;;;;;16.03;6.00;;;;;;;;;;5070493;28;20523;-80
2021/03/22 09:41:57;;;;;;;16.53;6.30;;;;;;;;;;5072144;28;20020;-80
2021/03/22 09:44:25;;;;;;;18.57;6.37;;;;;;;;;;5069679;28;20028;-80
2021/03/22 09:47:13;;;;;;;17.13;5.97;;;;;;;;;;5072003;28;20017;-80
2021/03/22 09:50:04;;;;;;;18.57;5.87;;;;;;;;;;5058437;28;20066;-80
2021/03/22 09:52:59;;;;;;;18.87;6.33;;;;;;;;;;5067776;28;20044;-80
2021/03/22 09:55:27;;;;;;;23.27;6.87;;;;;;;;;;5052239;28;20041;-80
2021/03/22 09:57:56;;;;;;;21.80;6.77;;;;;;;;;;5070481;28;20052;-80
2021/03/22 10:00:24;;;;;;;21.00;5.93;;;;;;;;;;5070530;28;20032;-80
2021/03/22 10:02:54;;;;;;;24.13;6.83;;;;;;;;;;5071870;28;20036;-80
2021/03/22 10:05:38;;;;;;;20.80;6.13;;;;;;;;;;5069817;28;20074;-81
2021/03/22 10:08:13;;;;;;;15.70;5.10;;;;;;;;;;5070161;28;20025;-80
2021/03/22 10:10:40;;;;;;;15.67;5.50;;;;;;;;;;5073205;28;20035;-80
2021/03/22 10:13:08;;;;;;;18.67;6.43;;;;;;;;;;5074420;28;20043;-80
2021/03/22 10:15:38;;;;;;;20.07;6.10;;;;;;;;;;5073855;28;20020;-80
2021/03/22 10:18:09;;;;;;;21.63;7.13;;;;;;;;;;5074104;28;20464;-80
2021/03/22 10:20:35;;;;;;;21.57;6.43;;;;;;;;;;5074101;28;20020;-80
2021/03/22 10:23:02;;;;;;;15.30;5.03;;;;;;;;;;5066287;28;20025;-80
2021/03/22 10:25:29;;;;;;;17.80;4.97;;;;;;;;;;5074037;28;20020;-80
2021/03/22 10:27:59;;;;;;;14.07;5.00;;;;;;;;;;5073821;28;20021;-80
2021/03/22 10:30:24;;;;;;;18.50;4.90;;;;;;;;;;5073866;28;20470;-79
2021/03/22 10:32:57;;;;;;;15.00;4.40;;;;;;;;;;5073784;28;20052;-80
2021/03/22 10:35:23;;;;;;;15.87;4.57;;;;;;;;;;5075307;28;20032;-80
2021/03/22 10:37:50;;;;;;;17.13;5.17;;;;;;;;;;5073285;28;20031;-79
2021/03/22 10:40:15;;;;;;;14.50;4.17;;;;;;;;;;5075007;28;20047;-80
2021/03/22 10:42:40;;;;;;;14.50;4.93;;;;;;;;;;5073603;28;20021;-80
2021/03/22 10:45:27;;;;;;;22.00;4.40;;;;;;;;;;5073505;28;20099;-80
2021/03/22 10:47:53;;;;;;;14.60;4.23;;;;;;;;;;5072938;28;20085;-80
2021/03/22 10:50:18;;;;;;;12.93;4.43;;;;;;;;;;5073188;28;20476;-80
2021/03/22 10:52:43;;;;;;;12.57;4.23;;;;;;;;;;5072462;28;20044;-79
2021/03/22 10:55:23;;;;;;;13.30;4.17;;;;;;;;;;5073009;28;20020;-80
2021/03/22 10:57:49;;;;;;;29.47;5.13;;;;;;;;;;5073677;28;20024;-80
2021/03/22 11:00:28;;;;;;;19.90;4.87;;;;;;;;;;5072786;28;20111;-80
2021/03/22 11:02:54;;;;;;;20.40;6.33;;;;;;;;;;5067808;28;20028;-80
2021/03/22 11:05:20;;;;;;;26.23;6.50;;;;;;;;;;5071556;28;20013;-80
2021/03/22 11:08:05;;;;;;;18.60;5.53;;;;;;;;;;5089834;28;20089;-80
2021/03/22 11:10:32;;;;;;;17.20;5.60;;;;;;;;;;5068958;28;20063;-80
2021/03/22 11:12:57;;;;;;;24.67;5.93;;;;;;;;;;5066429;28;20440;-80
2021/03/22 11:15:26;;;;;;;22.57;6.13;;;;;;;;;;5070512;28;20038;-80
2021/03/22 11:17:51;;;;;;;19.07;6.47;;;;;;;;;;5068666;28;20241;-80
2021/03/22 11:20:18;;;;;;;25.27;6.27;;;;;;;;;;5070056;28;22156;-80
2021/03/22 11:22:45;;;;;;;30.10;6.93;;;;;;;;;;5071481;28;20024;-79
2021/03/22 11:25:25;;;;;;;25.90;6.33;;;;;;;;;;5070981;28;20084;-80
2021/03/22 11:27:52;;;;;;;18.40;6.33;;;;;;;;;;5063329;28;20013;-80
2021/03/22 11:30:28;;;;;;;22.23;5.93;;;;;;;;;;5068805;28;20116;-80
2021/03/22 11:32:53;;;;;;;25.37;5.97;;;;;;;;;;5063168;28;20108;-80
2021/03/22 11:35:21;;;;;;;19.80;6.43;;;;;;;;;;5070182;28;20112;-80
2021/03/22 11:37:51;;;;;;;18.70;6.10;;;;;;;;;;5062290;28;20024;-79
2021/03/22 11:40:18;;;;;;;24.53;7.90;;;;;;;;;;5064305;28;20068;-79
2021/03/22 11:43:10;;;;;;;24.90;8.00;;;;;;;;;;5072469;28;20017;-80
2021/03/22 11:45:44;;;;;;;26.20;7.83;;;;;;;;;;5051841;28;20120;-80
2021/03/22 11:48:21;;;;;;;20.60;8.37;;;;;;;;;;5072458;28;20442;-80
2021/03/22 11:50:58;;;;;;;37.47;9.20;;;;;;;;;;5071601;28;20114;-80
2021/03/22 11:53:25;;;;;;;28.50;9.33;;;;;;;;;;5072057;28;20161;-80
2021/03/22 11:55:54;;;;;;;23.90;8.20;;;;;;;;;;5072516;28;20013;-80
2021/03/22 11:58:19;;;;;;;31.97;8.87;;;;;;;;;;5069965;28;20040;-79
2021/03/22 12:00:44;;;;;;;22.60;7.13;;;;;;;;;;5072224;28;20028;-80
2021/03/22 12:03:29;;;;;;;22.70;7.67;;;;;;;;;;5073427;28;20028;-79
2021/03/22 12:06:08;;;;;;;22.83;6.87;;;;;;;;;;5069135;28;20020;-80
2021/03/22 12:08:36;;;;;;;26.47;7.40;;;;;;;;;;5070096;28;20013;-80
2021/03/22 12:11:05;;;;;;;23.30;7.13;;;;;;;;;;5073253;28;20451;-80
2021/03/22 12:13:31;;;;;;;27.67;7.80;;;;;;;;;;5073129;28;20050;-79
2021/03/22 12:15:56;;;;;;;31.20;8.57;;;;;;;;;;5071409;28;20369;-80
2021/03/22 12:18:32;;;;;;;21.80;7.27;;;;;;;;;;5067484;28;20525;-80
2021/03/22 12:20:58;;;;;;;29.53;7.13;;;;;;;;;;5070514;28;20115;-80
2021/03/22 12:23:23;;;;;;;22.97;7.10;;;;;;;;;;5072470;28;20126;-80
2021/03/22 12:25:48;;;;;;;22.97;8.03;;;;;;;;;;5070665;28;20021;-80
2021/03/22 12:28:13;;;;;;;23.37;8.00;;;;;;;;;;5071781;28;20028;-80
2021/03/22 12:30:39;;;;;;;21.07;7.87;;;;;;;;;;5072685;28;20371;-79
2021/03/22 12:33:04;;;;;;;16.93;6.40;;;;;;;;;;5071432;28;20021;-80
2021/03/22 12:35:34;;;;;;;23.47;6.97;;;;;;;;;;5071602;28;20058;-80
2021/03/22 12:38:00;;;;;;;15.07;6.83;;;;;;;;;;5071540;28;20020;-80
2021/03/22 12:40:25;;;;;;;16.90;6.83;;;;;;;;;;5069474;28;20413;-80
2021/03/22 12:42:51;;;;;;;19.97;7.20;;;;;;;;;;5071096;28;20021;-81
2021/03/22 12:45:21;;;;;;;17.83;6.73;;;;;;;;;;5072369;28;20664;-80
2021/03/22 12:47:46;;;;;;;23.23;7.47;;;;;;;;;;5071120;28;20099;-80
2021/03/22 12:50:21;;;;;;;19.13;6.20;;;;;;;;;;5070271;28;20060;-81
2021/03/22 12:52:50;;;;;;;20.37;6.20;;;;;;;;;;5072612;28;20028;-80
2021/03/22 12:55:16;;;;;;;13.93;4.30;;;;;;;;;;5068946;28;20024;-81
2021/03/22 12:57:41;;;;;;;11.65;4.68;;;;;;;;;;5070941;28;20026;-81
2021/03/22 13:00:07;;;;;;;15.23;4.90;;;;;;;;;;5070690;28;20020;-81
2021/03/22 13:02:33;;;;;;;14.73;4.88;;;;;;;;;;5071817;28;20085;-81
2021/03/22 13:04:58;;;;;;;14.87;3.60;;;;;;;;;;5069658;28;20115;-81
2021/03/22 13:07:23;;;;;;;14.73;4.70;;;;;;;;;;5070627;28;20132;-81
2021/03/22 13:09:49;;;;;;;15.15;4.53;;;;;;;;;;5070956;28;20388;-81
2021/03/22 13:12:17;;;;;;;12.63;4.33;;;;;;;;;;5069297;28;20375;-81
2021/03/22 13:14:42;;;;;;;14.15;4.28;;;;;;;;;;5071940;28;20090;-81
2021/03/22 13:17:09;;;;;;;10.98;4.03;;;;;;;;;;5070479;28;20032;-81
2021/03/22 13:19:35;;;;;;;16.85;4.45;;;;;;;;;;5071991;28;20025;-81
2021/03/22 13:22:00;;;;;;;9.35;4.18;;;;;;;;;;5072275;28;20097;-81
2021/03/22 13:24:26;;;;;;;13.80;4.32;;;;;;;;;;5070690;28;20024;-81
2021/03/22 13:26:51;;;;;;;14.55;4.22;;;;;;;;;;5069966;28;20388;-81
2021/03/22 13:29:16;;;;;;;15.03;5.40;;;;;;;;;;5072119;28;20031;-81
2021/03/22 13:31:42;;;;;;;15.65;4.40;;;;;;;;;;5070898;28;20059;-82
2021/03/22 13:34:08;;;;;;;9.80;4.15;;;;;;;;;;5069977;28;20495;-82
2021/03/22 13:36:33;;;;;;;17.70;4.32;;;;;;;;;;5070768;28;20104;-81
2021/03/22 13:38:59;;;;;;;13.48;3.85;;;;;;;;;;5068348;28;20154;-81
2021/03/22 13:41:38;;;;;;;16.70;4.60;;;;;;;;;;5070585;28;20111;-82
2021/03/22 13:44:04;;;;;;;14.75;4.15;;;;;;;;;;5070885;28;20028;-82
2021/03/22 13:46:31;;;;;;;11.48;3.83;;;;;;;;;;5074721;28;20082;-82
2021/03/22 13:48:56;;;;;;;9.45;4.18;;;;;;;;;;5074796;28;20463;-82
2021/03/22 13:51:24;;;;;;;11.55;4.22;;;;;;;;;;5074028;28;20033;-81
2021/03/22 13:53:49;;;;;;;18.50;4.80;;;;;;;;;;5074715;28;20021;-81
2021/03/22 13:56:14;;;;;;;21.63;6.50;;;;;;;;;;5073675;28;20482;-81
2021/03/22 13:58:40;;;;;;;13.75;4.60;;;;;;;;;;5075868;28;20024;-81
2021/03/22 14:01:05;;;;;;;16.05;5.43;;;;;;;;;;5074644;28;20058;-81
2021/03/22 14:03:30;;;;;;;19.83;6.00;;;;;;;;;;5074053;28;20027;-81
2021/03/22 14:05:58;;;;;;;12.65;5.35;;;;;;;;;;5075735;28;20094;-82
2021/03/22 14:08:25;;;;;;;14.82;5.43;;;;;;;;;;5074171;28;20070;-81
2021/03/22 14:10:50;;;;;;;13.77;5.57;;;;;;;;;;5074475;28;20411;-81
2021/03/22 14:13:15;;;;;;;11.53;4.50;;;;;;;;;;5075133;28;20029;-81
2021/03/22 14:15:42;;;;;;;14.23;5.30;;;;;;;;;;5075240;28;20103;-81
2021/03/22 14:18:08;;;;;;;10.50;4.80;;;;;;;;;;5075628;28;20102;-81
2021/03/22 14:20:34;;;;;;;10.10;4.30;;;;;;;;;;5073952;28;20189;-81
2021/03/22 14:23:00;;;;;;;12.73;4.93;;;;;;;;;;5073980;28;20100;-81
2021/03/22 14:25:25;;;;;;;23.57;5.83;;;;;;;;;;5074707;28;20478;-82
2021/03/22 14:27:50;;;;;;;10.97;5.03;;;;;;;;;;5073824;28;20023;-81
2021/03/22 14:30:23;;;;;;;13.40;5.20;;;;;;;;;;5064113;28;20375;-82
2021/03/22 14:32:49;;;;;;;10.03;5.37;;;;;;;;;;5073747;28;20490;-81
2021/03/22 14:35:15;;;;;;;11.90;4.80;;;;;;;;;;5073766;28;20107;-81
2021/03/22 14:37:40;;;;;;;9.17;4.83;;;;;;;;;;5075097;28;20055;-83
2021/03/22 14:40:06;;;;;;;13.83;4.83;;;;;;;;;;5073976;28;20035;-82
2021/03/22 14:42:31;;;;;;;13.63;4.77;;;;;;;;;;5073655;28;20028;-83